sensor_id;sensor_type;location;lat;lon;timestamp;pressure;altitude;pressure_sealevel;temperature;humidity
11190;BME280;5651;50.926;4.718;2022-09-03T00:05:04;100832.47;;;16.55;46.31
11190;BME280;5651;50.926;4.718;2022-09-03T00:07:55;100827.97;;;16.58;46.74
11190;BME280;5651;50.926;4.718;2022-09-03T00:10:47;100826.16;;;16.60;46.29
11190;BME280;5651;50.926;4.718;2022-09-03T00:13:19;100819.88;;;16.64;49.07
11190;BME280;5651;50.926;4.718;2022-09-03T00:15:50;100818.13;;;16.65;46.29
11190;BME280;5651;50.926;4.718;2022-09-03T00:18:20;100814.50;;;16.69;46.21
11190;BME280;5651;50.926;4.718;2022-09-03T00:20:56;100808.22;;;16.73;46.95
11190;BME280;5651;50.926;4.718;2022-09-03T00:23:27;100815.16;;;16.76;47.15
11190;BME280;5651;50.926;4.718;2022-09-03T00:28:41;100813.25;;;16.81;46.99
11190;BME280;5651;50.926;4.718;2022-09-03T00:31:17;100800.84;;;16.85;47.64
11190;BME280;5651;50.926;4.718;2022-09-03T00:33:47;100806.06;;;16.86;47.36
11190;BME280;5651;50.926;4.718;2022-09-03T00:36:21;100803.41;;;16.88;47.09
11190;BME280;5651;50.926;4.718;2022-09-03T00:38:49;100804.16;;;16.91;47.54
11190;BME280;5651;50.926;4.718;2022-09-03T00:49:36;100809.25;;;16.98;50.40
11190;BME280;5651;50.926;4.718;2022-09-03T01:00:19;100810.94;;;17.00;50.20
11190;BME280;5651;50.926;4.718;2022-09-03T01:08:19;100803.03;;;17.00;50.27
11190;BME280;5651;50.926;4.718;2022-09-03T01:11:14;100810.09;;;16.98;49.95
11190;BME280;5651;50.926;4.718;2022-09-03T01:30:19;100810.03;;;17.01;50.84
11190;BME280;5651;50.926;4.718;2022-09-03T01:43:36;100818.69;;;17.05;54.29
11190;BME280;5651;50.926;4.718;2022-09-03T01:46:18;100811.63;;;17.05;52.89
11190;BME280;5651;50.926;4.718;2022-09-03T01:51:36;100815.09;;;17.07;50.54
11190;BME280;5651;50.926;4.718;2022-09-03T01:57:23;100810.59;;;17.11;49.96
11190;BME280;5651;50.926;4.718;2022-09-03T02:00:09;100808.75;;;17.13;49.87
11190;BME280;5651;50.926;4.718;2022-09-03T02:02:39;100813.06;;;17.16;49.38
11190;BME280;5651;50.926;4.718;2022-09-03T02:05:10;100813.97;;;17.15;48.40
11190;BME280;5651;50.926;4.718;2022-09-03T02:07:41;100820.91;;;17.17;48.34
11190;BME280;5651;50.926;4.718;2022-09-03T02:10:11;100812.94;;;17.19;49.29
11190;BME280;5651;50.926;4.718;2022-09-03T02:12:40;100815.56;;;17.19;48.97
11190;BME280;5651;50.926;4.718;2022-09-03T02:15:14;100818.97;;;17.22;48.62
11190;BME280;5651;50.926;4.718;2022-09-03T02:17:42;100815.44;;;17.23;48.65
11190;BME280;5651;50.926;4.718;2022-09-03T02:20:11;100813.63;;;17.25;49.00
11190;BME280;5651;50.926;4.718;2022-09-03T02:22:41;100816.19;;;17.27;49.32
11190;BME280;5651;50.926;4.718;2022-09-03T02:25:08;100807.38;;;17.28;49.58
11190;BME280;5651;50.926;4.718;2022-09-03T02:27:39;100806.41;;;17.31;49.85
11190;BME280;5651;50.926;4.718;2022-09-03T02:30:06;100805.50;;;17.32;49.43
11190;BME280;5651;50.926;4.718;2022-09-03T02:32:32;100814.28;;;17.32;49.85
11190;BME280;5651;50.926;4.718;2022-09-03T02:34:58;100815.06;;;17.34;49.41
11190;BME280;5651;50.926;4.718;2022-09-03T02:37:24;100817.69;;;17.36;49.46
11190;BME280;5651;50.926;4.718;2022-09-03T02:39:50;100812.34;;;17.37;49.00
11190;BME280;5651;50.926;4.718;2022-09-03T02:42:17;100817.53;;;17.40;48.42
11190;BME280;5651;50.926;4.718;2022-09-03T02:44:47;100813.88;;;17.45;48.81
11190;BME280;5651;50.926;4.718;2022-09-03T02:47:14;100809.41;;;17.47;48.84
11190;BME280;5651;50.926;4.718;2022-09-03T02:49:40;100810.19;;;17.49;48.79
11190;BME280;5651;50.926;4.718;2022-09-03T02:52:08;100816.28;;;17.51;51.45
11190;BME280;5651;50.926;4.718;2022-09-03T02:54:36;100812.69;;;17.53;50.45
11190;BME280;5651;50.926;4.718;2022-09-03T02:57:09;100813.50;;;17.55;50.38
11190;BME280;5651;50.926;4.718;2022-09-03T02:59:35;100813.44;;;17.57;49.02
11190;BME280;5651;50.926;4.718;2022-09-03T03:02:02;100812.59;;;17.56;50.07
11190;BME280;5651;50.926;4.718;2022-09-03T03:04:31;100820.41;;;17.60;49.86
11190;BME280;5651;50.926;4.718;2022-09-03T03:06:58;100822.16;;;17.59;50.26
11190;BME280;5651;50.926;4.718;2022-09-03T03:09:24;100822.16;;;17.59;49.91
11190;BME280;5651;50.926;4.718;2022-09-03T03:11:50;100817.75;;;17.60;50.21
11190;BME280;5651;50.926;4.718;2022-09-03T03:14:17;100816.81;;;17.61;50.12
11190;BME280;5651;50.926;4.718;2022-09-03T03:16:43;100818.63;;;17.60;50.34
11190;BME280;5651;50.926;4.718;2022-09-03T03:19:09;100823.88;;;17.60;49.40
11190;BME280;5651;50.926;4.718;2022-09-03T03:21:35;100817.69;;;17.61;49.98
11190;BME280;5651;50.926;4.718;2022-09-03T03:24:02;100814.19;;;17.61;50.36
11190;BME280;5651;50.926;4.718;2022-09-03T03:26:27;100822.06;;;17.62;51.20
11190;BME280;5651;50.926;4.718;2022-09-03T03:28:58;100813.28;;;17.62;50.22
11190;BME280;5651;50.926;4.718;2022-09-03T03:31:25;100814.16;;;17.62;51.36
11190;BME280;5651;50.926;4.718;2022-09-03T03:33:54;100824.63;;;17.64;52.28
11190;BME280;5651;50.926;4.718;2022-09-03T03:36:22;100821.16;;;17.63;51.38
11190;BME280;5651;50.926;4.718;2022-09-03T03:38:48;100822.84;;;17.64;51.44
11190;BME280;5651;50.926;4.718;2022-09-03T03:41:16;100821.03;;;17.66;52.21
11190;BME280;5651;50.926;4.718;2022-09-03T03:43:43;100820.22;;;17.64;51.57
11190;BME280;5651;50.926;4.718;2022-09-03T03:46:10;100817.56;;;17.64;50.50
11190;BME280;5651;50.926;4.718;2022-09-03T03:48:37;100823.66;;;17.66;52.09
11190;BME280;5651;50.926;4.718;2022-09-03T03:51:05;100819.28;;;17.67;51.99
11190;BME280;5651;50.926;4.718;2022-09-03T03:53:33;100829.63;;;17.71;52.30
11190;BME280;5651;50.926;4.718;2022-09-03T03:56:01;100824.41;;;17.70;53.67
11190;BME280;5651;50.926;4.718;2022-09-03T03:58:28;100825.28;;;17.70;55.23
11190;BME280;5651;50.926;4.718;2022-09-03T04:01:12;100823.56;;;17.69;55.57
11190;BME280;5651;50.926;4.718;2022-09-03T04:03:38;100834.13;;;17.69;54.42
11190;BME280;5651;50.926;4.718;2022-09-03T04:06:05;100818.41;;;17.66;54.31
11190;BME280;5651;50.926;4.718;2022-09-03T04:08:35;100821.03;;;17.66;57.73
11190;BME280;5651;50.926;4.718;2022-09-03T04:11:03;100815.81;;;17.65;54.87
11190;BME280;5651;50.926;4.718;2022-09-03T04:13:34;100821.16;;;17.63;56.08
11190;BME280;5651;50.926;4.718;2022-09-03T04:16:06;100815.06;;;17.61;56.02
11190;BME280;5651;50.926;4.718;2022-09-03T04:18:33;100809.78;;;17.61;56.18
11190;BME280;5651;50.926;4.718;2022-09-03T04:21:01;100815.06;;;17.61;55.30
11190;BME280;5651;50.926;4.718;2022-09-03T04:23:30;100816.81;;;17.61;54.04
11190;BME280;5651;50.926;4.718;2022-09-03T04:25:56;100810.66;;;17.62;55.67
11190;BME280;5651;50.926;4.718;2022-09-03T04:28:22;100819.44;;;17.62;54.03
11190;BME280;5651;50.926;4.718;2022-09-03T04:30:47;100816.78;;;17.62;54.35
11190;BME280;5651;50.926;4.718;2022-09-03T04:33:13;100811.53;;;17.62;54.97
11190;BME280;5651;50.926;4.718;2022-09-03T04:35:39;100811.53;;;17.62;55.12
11190;BME280;5651;50.926;4.718;2022-09-03T04:38:05;100804.53;;;17.61;55.27
11190;BME280;5651;50.926;4.718;2022-09-03T04:40:32;100802.75;;;17.62;54.29
11190;BME280;5651;50.926;4.718;2022-09-03T04:42:58;100785.19;;;17.61;54.95
11190;BME280;5651;50.926;4.718;2022-09-03T04:45:25;100794.00;;;17.61;56.04
11190;BME280;5651;50.926;4.718;2022-09-03T04:48:03;100788.78;;;17.60;54.61
11190;BME280;5651;50.926;4.718;2022-09-03T04:50:31;100791.44;;;17.58;56.27
11190;BME280;5651;50.926;4.718;2022-09-03T04:53:02;100792.34;;;17.57;55.81
11190;BME280;5651;50.926;4.718;2022-09-03T04:55:36;100795.88;;;17.57;54.78
11190;BME280;5651;50.926;4.718;2022-09-03T04:58:03;100798.50;;;17.57;55.54
11190;BME280;5651;50.926;4.718;2022-09-03T05:00:29;100800.25;;;17.57;55.45
11190;BME280;5651;50.926;4.718;2022-09-03T05:02:59;100805.59;;;17.55;59.00
11190;BME280;5651;50.926;4.718;2022-09-03T05:05:25;100805.66;;;17.54;60.08
11190;BME280;5651;50.926;4.718;2022-09-03T05:07:50;100809.88;;;17.58;57.11
11190;BME280;5651;50.926;4.718;2022-09-03T05:10:18;100812.53;;;17.58;58.69
11190;BME280;5651;50.926;4.718;2022-09-03T05:13:02;100812.53;;;17.58;57.82
11190;BME280;5651;50.926;4.718;2022-09-03T05:15:29;100812.38;;;17.63;55.21
11190;BME280;5651;50.926;4.718;2022-09-03T05:17:59;100829.91;;;17.64;57.72
11190;BME280;5651;50.926;4.718;2022-09-03T05:20:28;100815.97;;;17.60;60.21
11190;BME280;5651;50.926;4.718;2022-09-03T05:22:56;100814.09;;;17.64;57.17
11190;BME280;5651;50.926;4.718;2022-09-03T05:25:22;100814.03;;;17.65;55.95
11190;BME280;5651;50.926;4.718;2022-09-03T05:27:49;100812.22;;;17.67;57.24
11190;BME280;5651;50.926;4.718;2022-09-03T05:30:15;100813.94;;;17.68;56.55
11190;BME280;5651;50.926;4.718;2022-09-03T05:32:41;100811.31;;;17.68;57.35
11190;BME280;5651;50.926;4.718;2022-09-03T05:35:08;100808.59;;;17.70;57.02
11190;BME280;5651;50.926;4.718;2022-09-03T05:37:35;100811.25;;;17.70;57.18
11190;BME280;5651;50.926;4.718;2022-09-03T05:40:02;100805.13;;;17.69;58.33
11190;BME280;5651;50.926;4.718;2022-09-03T05:42:28;100805.97;;;17.70;57.02
11190;BME280;5651;50.926;4.718;2022-09-03T05:44:55;100811.19;;;17.71;57.29
11190;BME280;5651;50.926;4.718;2022-09-03T05:47:21;100811.16;;;17.73;57.58
11190;BME280;5651;50.926;4.718;2022-09-03T05:49:47;100801.56;;;17.70;60.73
11190;BME280;5651;50.926;4.718;2022-09-03T05:52:13;100802.31;;;17.74;58.75
11190;BME280;5651;50.926;4.718;2022-09-03T05:54:38;100808.34;;;17.78;57.78
11190;BME280;5651;50.926;4.718;2022-09-03T05:57:04;100801.19;;;17.81;59.17
11190;BME280;5651;50.926;4.718;2022-09-03T05:59:30;100812.59;;;17.82;57.21
11190;BME280;5651;50.926;4.718;2022-09-03T06:01:56;100799.25;;;17.86;57.76
11190;BME280;5651;50.926;4.718;2022-09-03T06:04:21;100807.00;;;17.91;56.64
11190;BME280;5651;50.926;4.718;2022-09-03T06:06:47;100802.44;;;17.96;54.53
11190;BME280;5651;50.926;4.718;2022-09-03T06:09:16;100816.50;;;17.97;58.59
11190;BME280;5651;50.926;4.718;2022-09-03T06:11:43;100814.78;;;17.96;60.19
11190;BME280;5651;50.926;4.718;2022-09-03T06:14:11;100814.78;;;17.94;60.09
11190;BME280;5651;50.926;4.718;2022-09-03T06:16:39;100816.13;;;18.06;57.77
11190;BME280;5651;50.926;4.718;2022-09-03T06:19:06;100823.13;;;18.07;59.32
11190;BME280;5651;50.926;4.718;2022-09-03T06:21:40;100824.47;;;18.19;56.33
11190;BME280;5651;50.926;4.718;2022-09-03T06:24:13;100830.25;;;18.29;56.00
11190;BME280;5651;50.926;4.718;2022-09-03T06:26:39;100831.56;;;18.41;54.83
11190;BME280;5651;50.926;4.718;2022-09-03T06:29:05;100829.56;;;18.47;55.97
11190;BME280;5651;50.926;4.718;2022-09-03T06:31:31;100830.16;;;18.56;55.86
11190;BME280;5651;50.926;4.718;2022-09-03T06:33:57;100829.00;;;18.63;56.37
11190;BME280;5651;50.926;4.718;2022-09-03T06:36:23;100835.69;;;18.72;57.18
11190;BME280;5651;50.926;4.718;2022-09-03T06:38:53;100834.41;;;18.82;56.96
11190;BME280;5651;50.926;4.718;2022-09-03T06:41:24;100837.50;;;18.93;56.99
11190;BME280;5651;50.926;4.718;2022-09-03T06:43:56;100839.69;;;19.06;58.81
11190;BME280;5651;50.926;4.718;2022-09-03T06:46:37;100834.88;;;19.15;56.67
11190;BME280;5651;50.926;4.718;2022-09-03T06:49:03;100839.28;;;19.15;59.10
11190;BME280;5651;50.926;4.718;2022-09-03T06:51:31;100846.00;;;19.24;58.23
11190;BME280;5651;50.926;4.718;2022-09-03T06:54:05;100844.75;;;19.32;57.28
11190;BME280;5651;50.926;4.718;2022-09-03T06:56:32;100841.91;;;19.37;59.10
11190;BME280;5651;50.926;4.718;2022-09-03T06:59:02;100848.59;;;19.46;57.15
11190;BME280;5651;50.926;4.718;2022-09-03T07:01:31;100855.22;;;19.56;56.02
11190;BME280;5651;50.926;4.718;2022-09-03T07:04:02;100846.91;;;19.66;55.65
11190;BME280;5651;50.926;4.718;2022-09-03T07:06:30;100853.50;;;19.76;57.92
11190;BME280;5651;50.926;4.718;2022-09-03T07:08:57;100853.66;;;19.73;58.00
11190;BME280;5651;50.926;4.718;2022-09-03T07:11:26;100857.75;;;19.80;57.72
11190;BME280;5651;50.926;4.718;2022-09-03T07:13:54;100858.53;;;19.82;58.16
11190;BME280;5651;50.926;4.718;2022-09-03T07:16:22;100861.41;;;19.98;57.17
11190;BME280;5651;50.926;4.718;2022-09-03T07:18:48;100856.97;;;19.99;58.71
11190;BME280;5651;50.926;4.718;2022-09-03T07:21:20;100857.63;;;20.04;58.59
11190;BME280;5651;50.926;4.718;2022-09-03T07:23:47;100862.66;;;20.10;58.20
11190;BME280;5651;50.926;4.718;2022-09-03T07:26:16;100858.88;;;20.16;58.45
11190;BME280;5651;50.926;4.718;2022-09-03T07:28:43;100858.69;;;20.20;58.57
11190;BME280;5651;50.926;4.718;2022-09-03T07:31:18;100854.22;;;20.21;58.89
11190;BME280;5651;50.926;4.718;2022-09-03T07:33:47;100860.66;;;20.15;58.66
11190;BME280;5651;50.926;4.718;2022-09-03T07:36:15;100853.81;;;20.30;58.78
11190;BME280;5651;50.926;4.718;2022-09-03T07:38:42;100858.63;;;20.41;58.77
11190;BME280;5651;50.926;4.718;2022-09-03T07:41:12;100862.28;;;20.57;58.97
11190;BME280;5651;50.926;4.718;2022-09-03T07:43:41;100857.16;;;20.73;58.08
11190;BME280;5651;50.926;4.718;2022-09-03T07:46:19;100859.88;;;20.91;57.73
11190;BME280;5651;50.926;4.718;2022-09-03T07:48:49;100860.47;;;21.15;56.78
11190;BME280;5651;50.926;4.718;2022-09-03T07:51:16;100862.06;;;21.37;56.78
11190;BME280;5651;50.926;4.718;2022-09-03T07:53:46;100853.47;;;21.49;58.50
11190;BME280;5651;50.926;4.718;2022-09-03T07:56:13;100857.09;;;21.66;58.42
11190;BME280;5651;50.926;4.718;2022-09-03T07:58:40;100857.25;;;21.80;58.17
11190;BME280;5651;50.926;4.718;2022-09-03T08:01:12;100855.50;;;21.97;57.85
11190;BME280;5651;50.926;4.718;2022-09-03T08:03:42;100857.69;;;22.06;56.74
11190;BME280;5651;50.926;4.718;2022-09-03T08:06:11;100856.34;;;22.15;56.06
11190;BME280;5651;50.926;4.718;2022-09-03T08:08:38;100861.16;;;22.24;55.83
11190;BME280;5651;50.926;4.718;2022-09-03T08:11:05;100861.84;;;22.28;54.53
11190;BME280;5651;50.926;4.718;2022-09-03T08:13:44;100861.06;;;22.26;54.59
11190;BME280;5651;50.926;4.718;2022-09-03T08:16:12;100866.38;;;22.26;54.65
11190;BME280;5651;50.926;4.718;2022-09-03T08:18:38;100867.47;;;22.39;54.52
11190;BME280;5651;50.926;4.718;2022-09-03T08:21:06;100859.09;;;22.47;53.83
11190;BME280;5651;50.926;4.718;2022-09-03T08:23:36;100867.41;;;22.57;52.34
11190;BME280;5651;50.926;4.718;2022-09-03T08:26:02;100873.69;;;22.38;53.30
11190;BME280;5651;50.926;4.718;2022-09-03T08:28:28;100868.44;;;22.54;52.07
11190;BME280;5651;50.926;4.718;2022-09-03T08:30:54;100880.44;;;22.45;52.94
11190;BME280;5651;50.926;4.718;2022-09-03T08:33:20;100887.38;;;22.48;52.23
11190;BME280;5651;50.926;4.718;2022-09-03T08:36:07;100887.28;;;22.50;52.96
11190;BME280;5651;50.926;4.718;2022-09-03T08:38:34;100896.13;;;22.50;52.59
11190;BME280;5651;50.926;4.718;2022-09-03T08:41:12;100894.44;;;22.47;53.12
11190;BME280;5651;50.926;4.718;2022-09-03T08:46:33;100900.31;;;22.54;53.66
11190;BME280;5651;50.926;4.718;2022-09-03T08:49:02;100895.94;;;22.53;53.03
11190;BME280;5651;50.926;4.718;2022-09-03T08:51:30;100898.25;;;22.59;53.51
11190;BME280;5651;50.926;4.718;2022-09-03T08:53:59;100895.69;;;22.58;53.13
11190;BME280;5651;50.926;4.718;2022-09-03T08:56:27;100904.09;;;22.66;53.37
11190;BME280;5651;50.926;4.718;2022-09-03T08:58:54;100906.59;;;22.69;53.40
11190;BME280;5651;50.926;4.718;2022-09-03T09:04:36;100893.56;;;22.97;54.41
11190;BME280;5651;50.926;4.718;2022-09-03T09:20:39;100888.56;;;24.14;53.07
11190;BME280;5651;50.926;4.718;2022-09-03T09:23:13;100888.88;;;24.52;51.24
11190;BME280;5651;50.926;4.718;2022-09-03T09:25:46;100895.06;;;24.53;53.08
11190;BME280;5651;50.926;4.718;2022-09-03T09:28:20;100899.16;;;24.59;52.27
11190;BME280;5651;50.926;4.718;2022-09-03T09:30:49;100906.19;;;24.74;52.53
11190;BME280;5651;50.926;4.718;2022-09-03T09:33:16;100902.28;;;24.80;53.27
11190;BME280;5651;50.926;4.718;2022-09-03T09:35:43;100900.25;;;24.98;51.81
11190;BME280;5651;50.926;4.718;2022-09-03T09:38:11;100893.59;;;24.91;52.50
11190;BME280;5651;50.926;4.718;2022-09-03T09:40:39;100891.97;;;25.03;52.20
11190;BME280;5651;50.926;4.718;2022-09-03T09:45:39;100891.09;;;25.29;52.05
11190;BME280;5651;50.926;4.718;2022-09-03T09:50:42;100882.97;;;25.58;52.26
11190;BME280;5651;50.926;4.718;2022-09-03T09:53:10;100885.56;;;25.73;51.24
11190;BME280;5651;50.926;4.718;2022-09-03T09:55:50;100882.72;;;25.89;50.67
11190;BME280;5651;50.926;4.718;2022-09-03T09:58:18;100889.22;;;25.85;50.64
11190;BME280;5651;50.926;4.718;2022-09-03T10:01:00;100890.63;;;26.03;49.91
11190;BME280;5651;50.926;4.718;2022-09-03T10:03:30;100877.91;;;26.07;50.58
11190;BME280;5651;50.926;4.718;2022-09-03T10:06:03;100892.66;;;26.25;51.48
11190;BME280;5651;50.926;4.718;2022-09-03T10:08:49;100878.97;;;25.78;50.75
11190;BME280;5651;50.926;4.718;2022-09-03T10:11:16;100884.31;;;26.43;49.41
11190;BME280;5651;50.926;4.718;2022-09-03T10:13:45;100885.31;;;26.66;48.41
11190;BME280;5651;50.926;4.718;2022-09-03T10:16:26;100880.09;;;26.78;48.06
11190;BME280;5651;50.926;4.718;2022-09-03T10:19:08;100886.34;;;26.52;49.70
11190;BME280;5651;50.926;4.718;2022-09-03T10:26:41;100882.69;;;27.03;49.37
11190;BME280;5651;50.926;4.718;2022-09-03T10:29:07;100886.09;;;27.30;49.28
11190;BME280;5651;50.926;4.718;2022-09-03T10:48:07;100892.44;;;28.23;47.04
11190;BME280;5651;50.926;4.718;2022-09-03T10:53:37;100895.25;;;28.33;46.78
11190;BME280;5651;50.926;4.718;2022-09-03T11:01:19;100884.91;;;28.28;45.79
11190;BME280;5651;50.926;4.718;2022-09-03T11:04:24;100885.38;;;28.44;46.75
11190;BME280;5651;50.926;4.718;2022-09-03T11:07:05;100889.03;;;28.55;46.72
11190;BME280;5651;50.926;4.718;2022-09-03T11:12:28;100890.63;;;28.80;45.85
11190;BME280;5651;50.926;4.718;2022-09-03T11:15:06;100895.88;;;28.48;44.91
11190;BME280;5651;50.926;4.718;2022-09-03T11:17:45;100887.59;;;28.73;45.33
11190;BME280;5651;50.926;4.718;2022-09-03T11:22:45;100888.63;;;28.93;45.21
11190;BME280;5651;50.926;4.718;2022-09-03T11:25:13;100876.53;;;29.11;44.68
11190;BME280;5651;50.926;4.718;2022-09-03T11:30:10;100885.34;;;28.90;44.82
11190;BME280;5651;50.926;4.718;2022-09-03T11:38:03;100869.47;;;29.63;43.79
11190;BME280;5651;50.926;4.718;2022-09-03T11:40:34;100872.72;;;29.88;44.06
11190;BME280;5651;50.926;4.718;2022-09-03T11:43:23;100870.44;;;30.04;43.33
11190;BME280;5651;50.926;4.718;2022-09-03T11:48:50;100870.38;;;29.95;43.32
11190;BME280;5651;50.926;4.718;2022-09-03T11:56:45;100860.97;;;30.41;43.91
11190;BME280;5651;50.926;4.718;2022-09-03T11:59:22;100861.91;;;30.61;42.06
11190;BME280;5651;50.926;4.718;2022-09-03T12:04:25;100863.81;;;30.40;40.87
11190;BME280;5651;50.926;4.718;2022-09-03T12:09:52;100872.13;;;30.37;41.68
11190;BME280;5651;50.926;4.718;2022-09-03T12:21:02;100873.00;;;30.78;41.39
11190;BME280;5651;50.926;4.718;2022-09-03T12:25:54;100862.53;;;31.73;42.11
11190;BME280;5651;50.926;4.718;2022-09-03T12:28:24;100859.00;;;31.23;39.44
11190;BME280;5651;50.926;4.718;2022-09-03T12:30:52;100856.84;;;31.86;40.70
11190;BME280;5651;50.926;4.718;2022-09-03T12:33:20;100865.22;;;32.20;39.76
11190;BME280;5651;50.926;4.718;2022-09-03T12:36:00;100861.41;;;32.23;39.29
11190;BME280;5651;50.926;4.718;2022-09-03T12:38:27;100855.81;;;31.97;38.70
11190;BME280;5651;50.926;4.718;2022-09-03T12:40:58;100853.97;;;31.87;39.10
11190;BME280;5651;50.926;4.718;2022-09-03T12:43:28;100854.19;;;31.66;38.26
11190;BME280;5651;50.926;4.718;2022-09-03T12:45:54;100852.00;;;31.89;39.45
11190;BME280;5651;50.926;4.718;2022-09-03T12:48:20;100856.53;;;31.89;39.75
11190;BME280;5651;50.926;4.718;2022-09-03T12:50:47;100853.00;;;31.88;39.40
11190;BME280;5651;50.926;4.718;2022-09-03T12:53:21;100853.63;;;31.72;39.13
11190;BME280;5651;50.926;4.718;2022-09-03T12:55:54;100852.03;;;31.80;40.06
11190;BME280;5651;50.926;4.718;2022-09-03T12:58:39;100850.31;;;31.88;39.53
11190;BME280;5651;50.926;4.718;2022-09-03T13:01:16;100854.72;;;31.60;37.74
11190;BME280;5651;50.926;4.718;2022-09-03T13:04:04;100852.34;;;32.04;38.72
11190;BME280;5651;50.926;4.718;2022-09-03T13:07:06;100848.59;;;31.87;39.10
11190;BME280;5651;50.926;4.718;2022-09-03T13:09:37;100850.22;;;31.60;38.26
11190;BME280;5651;50.926;4.718;2022-09-03T13:12:04;100851.66;;;31.16;39.29
11190;BME280;5651;50.926;4.718;2022-09-03T13:14:43;100854.47;;;31.43;38.82
11190;BME280;5651;50.926;4.718;2022-09-03T13:20:10;100857.47;;;31.40;39.91
11190;BME280;5651;50.926;4.718;2022-09-03T13:23:06;100855.91;;;31.28;39.96
11190;BME280;5651;50.926;4.718;2022-09-03T13:26:02;100853.78;;;31.41;39.63
11190;BME280;5651;50.926;4.718;2022-09-03T13:31:35;100845.66;;;31.71;38.09
11190;BME280;5651;50.926;4.718;2022-09-03T13:34:09;100849.78;;;31.75;39.19
11190;BME280;5651;50.926;4.718;2022-09-03T13:36:53;100854.72;;;31.80;38.50
11190;BME280;5651;50.926;4.718;2022-09-03T13:42:19;100852.06;;;32.45;38.68
11190;BME280;5651;50.926;4.718;2022-09-03T13:44:58;100836.84;;;32.16;37.44
11190;BME280;5651;50.926;4.718;2022-09-03T13:47:31;100852.13;;;32.35;37.40
11190;BME280;5651;50.926;4.718;2022-09-03T13:50:43;100846.88;;;32.34;37.17
11190;BME280;5651;50.926;4.718;2022-09-03T13:55:48;100856.53;;;32.82;37.57
11190;BME280;5651;50.926;4.718;2022-09-03T13:58:55;100854.50;;;32.01;37.35
11190;BME280;5651;50.926;4.718;2022-09-03T14:01:24;100852.31;;;32.52;37.97
11190;BME280;5651;50.926;4.718;2022-09-03T14:03:54;100853.16;;;32.80;37.91
11190;BME280;5651;50.926;4.718;2022-09-03T14:06:38;100856.88;;;32.14;37.85
11190;BME280;5651;50.926;4.718;2022-09-03T14:11:45;100856.53;;;31.99;38.13
11190;BME280;5651;50.926;4.718;2022-09-03T14:22:17;100856.56;;;33.00;38.02
11190;BME280;5651;50.926;4.718;2022-09-03T14:24:51;100857.78;;;33.06;37.38
11190;BME280;5651;50.926;4.718;2022-09-03T14:27:26;100860.72;;;33.13;36.82
11190;BME280;5651;50.926;4.718;2022-09-03T14:29:58;100865.25;;;32.94;36.91
11190;BME280;5651;50.926;4.718;2022-09-03T14:35:37;100858.91;;;32.67;37.93
11190;BME280;5651;50.926;4.718;2022-09-03T14:44:18;100848.13;;;32.39;37.71
11190;BME280;5651;50.926;4.718;2022-09-03T14:52:37;100855.06;;;33.24;35.85
11190;BME280;5651;50.926;4.718;2022-09-03T15:00:53;100853.25;;;32.33;35.93
11190;BME280;5651;50.926;4.718;2022-09-03T15:08:53;100841.56;;;31.57;38.75
11190;BME280;5651;50.926;4.718;2022-09-03T15:11:31;100854.06;;;31.38;38.81
11190;BME280;5651;50.926;4.718;2022-09-03T15:14:12;100850.94;;;31.13;39.81
11190;BME280;5651;50.926;4.718;2022-09-03T15:19:25;100848.34;;;30.82;39.60
11190;BME280;5651;50.926;4.718;2022-09-03T15:24:52;100843.84;;;31.42;39.76
11190;BME280;5651;50.926;4.718;2022-09-03T15:27:54;100847.53;;;31.31;39.75
11190;BME280;5651;50.926;4.718;2022-09-03T15:30:35;100852.34;;;31.47;39.36
11190;BME280;5651;50.926;4.718;2022-09-03T15:33:14;100849.53;;;31.29;39.63
11190;BME280;5651;50.926;4.718;2022-09-03T15:38:57;100856.59;;;32.17;39.00
11190;BME280;5651;50.926;4.718;2022-09-03T15:41:49;100865.31;;;31.91;39.49
11190;BME280;5651;50.926;4.718;2022-09-03T15:44:18;100860.97;;;31.02;40.78
11190;BME280;5651;50.926;4.718;2022-09-03T15:46:58;100864.47;;;30.63;42.05
11190;BME280;5651;50.926;4.718;2022-09-03T15:52:25;100855.75;;;30.09;42.80
11190;BME280;5651;50.926;4.718;2022-09-03T15:57:28;100858.69;;;30.06;43.26
11190;BME280;5651;50.926;4.718;2022-09-03T16:00:05;100862.25;;;29.85;42.90
11190;BME280;5651;50.926;4.718;2022-09-03T16:05:50;100866.50;;;29.87;44.29
11190;BME280;5651;50.926;4.718;2022-09-03T16:08:27;100866.00;;;29.51;44.74
11190;BME280;5651;50.926;4.718;2022-09-03T16:11:04;100881.53;;;29.48;43.99
11190;BME280;5651;50.926;4.718;2022-09-03T16:13:54;100874.47;;;29.35;44.62
11190;BME280;5651;50.926;4.718;2022-09-03T16:16:27;100881.53;;;29.04;45.79
11190;BME280;5651;50.926;4.718;2022-09-03T16:24:14;100887.06;;;28.68;46.22
11190;BME280;5651;50.926;4.718;2022-09-03T16:26:50;100896.72;;;28.48;46.29
11190;BME280;5651;50.926;4.718;2022-09-03T16:29:25;100900.25;;;28.37;46.62
11190;BME280;5651;50.926;4.718;2022-09-03T16:32:19;100908.53;;;28.23;48.00
11190;BME280;5651;50.926;4.718;2022-09-03T16:38:01;100958.47;;;27.88;52.25
11190;BME280;5651;50.926;4.718;2022-09-03T16:51:42;100951.31;;;25.34;61.55
11190;BME280;5651;50.926;4.718;2022-09-03T16:54:29;100956.03;;;25.43;59.69
11190;BME280;5651;50.926;4.718;2022-09-03T17:02:34;100954.94;;;24.76;63.99
11190;BME280;5651;50.926;4.718;2022-09-03T17:26:40;100951.53;;;23.38;66.97
11190;BME280;5651;50.926;4.718;2022-09-03T17:29:35;100958.56;;;23.07;69.67
11190;BME280;5651;50.926;4.718;2022-09-03T17:46:05;100963.16;;;23.21;65.10
11190;BME280;5651;50.926;4.718;2022-09-03T17:48:52;100963.22;;;23.19;65.29
11190;BME280;5651;50.926;4.718;2022-09-03T17:51:35;100960.88;;;23.13;63.97
11190;BME280;5651;50.926;4.718;2022-09-03T18:01:55;100974.13;;;22.81;66.67
11190;BME280;5651;50.926;4.718;2022-09-03T18:07:08;100975.66;;;22.69;66.13
11190;BME280;5651;50.926;4.718;2022-09-03T18:09:45;100981.47;;;22.60;65.36
11190;BME280;5651;50.926;4.718;2022-09-03T18:12:26;100985.38;;;22.53;68.01
11190;BME280;5651;50.926;4.718;2022-09-03T18:15:08;100991.78;;;22.48;65.88